createdAt,value
2022-08-05T04:08:46.206Z,100444.53
2022-08-05T04:11:52.596Z,100444.53
2022-08-05T04:14:57.580Z,100450.16
2022-08-05T04:18:03.971Z,100447.16
2022-08-05T04:21:10.887Z,100451.97
2022-08-05T04:24:18.839Z,100451.53
2022-08-05T04:27:41.925Z,100440.72
2022-08-05T04:30:48.130Z,100447.28
2022-08-05T04:34:17.375Z,100439.81
2022-08-05T04:37:12.777Z,100445.84
2022-08-05T04:40:14.993Z,100447.16
2022-08-05T04:43:22.220Z,100439.47
2022-08-05T04:46:28.473Z,100445.44
2022-08-05T04:49:39.301Z,100445.56
2022-08-05T04:52:53.081Z,100451.63
2022-08-05T04:56:14.429Z,100448.56
2022-08-05T04:59:24.215Z,100450.56
2022-08-05T05:02:41.893Z,100451.13
2022-08-05T05:06:40.280Z,100448.22
2022-08-05T05:09:07.777Z,100449.53
2022-08-05T05:12:09.875Z,100449.69
2022-08-05T05:15:13.969Z,100441.66
2022-08-05T05:18:28.001Z,100441.75
2022-08-05T05:21:33.293Z,100435.97
2022-08-05T05:24:56.421Z,100433.84
2022-08-05T05:27:57.874Z,100434.50
2022-08-05T05:30:59.974Z,100433.87
2022-08-05T05:34:02.997Z,100439.59
2022-08-05T05:37:05.103Z,100426.44
2022-08-05T05:40:08.781Z,100427.37
2022-08-05T05:43:13.759Z,100431.03
2022-08-05T05:46:18.935Z,100427.97
2022-08-05T05:49:22.616Z,100429.66
2022-08-05T05:52:30.048Z,100423.03
2022-08-05T05:55:52.311Z,100430.63
2022-08-05T05:58:57.650Z,100418.12
2022-08-05T06:02:05.721Z,100421.34
2022-08-05T06:05:16.977Z,100428.50
2022-08-05T06:08:32.321Z,100422.25
2022-08-05T06:11:35.719Z,100425.41
2022-08-05T06:14:44.727Z,100423.13
2022-08-05T06:17:52.800Z,100421.59
2022-08-05T06:20:56.244Z,100431.44
2022-08-05T06:23:59.666Z,100422.00
2022-08-05T06:27:04.271Z,100427.94
2022-08-05T06:30:17.994Z,100429.53
2022-08-05T06:33:33.417Z,100424.06
2022-08-05T06:36:57.293Z,100424.03
2022-08-05T06:40:00.663Z,100424.47
2022-08-05T06:43:04.839Z,100423.69
2022-08-05T06:46:07.531Z,100424.44
2022-08-05T06:49:09.938Z,100425.62
2022-08-05T06:52:36.908Z,100430.72
2022-08-05T06:55:37.034Z,100421.28
2022-08-05T06:58:39.501Z,100424.47
2022-08-05T07:01:42.553Z,100427.19
2022-08-05T07:04:44.664Z,100429.53
2022-08-05T07:07:48.997Z,100423.63
2022-08-05T07:10:53.263Z,100424.44
2022-08-05T07:14:15.607Z,100429.16
2022-08-05T07:18:02.048Z,100421.28
2022-08-05T07:20:45.211Z,100425.19
2022-08-05T07:23:49.995Z,100420.81
2022-08-05T07:26:54.644Z,100412.56
2022-08-05T07:30:27.436Z,100418.84
2022-08-05T07:33:21.435Z,100421.97
2022-08-05T07:36:39.430Z,100415.66
2022-08-05T07:40:26.992Z,100414.44
2022-08-05T07:43:04.919Z,100415.19
2022-08-05T07:46:24.494Z,100410.03
2022-08-05T07:49:27.681Z,100406.84
2022-08-05T07:52:30.436Z,100406.84
2022-08-05T07:56:05.141Z,100399.69
2022-08-05T07:58:58.763Z,100401.25
2022-08-05T08:02:02.361Z,100407.50
2022-08-05T08:05:06.473Z,100403.16
2022-08-05T08:08:12.603Z,100406.28
2022-08-05T08:11:17.724Z,100405.03
2022-08-05T08:14:29.901Z,100406.19
2022-08-05T08:17:33.052Z,100398.31
2022-08-05T08:20:44.659Z,100400.59
2022-08-05T08:24:04.975Z,100398.97
2022-08-05T08:27:08.499Z,100397.81
2022-08-05T08:30:27.663Z,100396.69
2022-08-05T08:33:37.448Z,100398.16
2022-08-05T08:36:48.882Z,100398.59
2022-08-05T08:39:57.078Z,100395.03
2022-08-05T08:45:04.479Z,100396.91
2022-08-05T08:46:24.266Z,100392.53
2022-08-05T08:50:14.493Z,100387.25
2022-08-05T08:52:56.746Z,100393.94
2022-08-05T08:56:03.511Z,100389.97
2022-08-05T08:59:19.500Z,100392.28
2022-08-05T09:02:26.555Z,100388.28
2022-08-05T09:05:38.406Z,100390.13
2022-08-05T09:08:41.578Z,100385.81
2022-08-05T09:11:51.111Z,100380.25
2022-08-05T09:15:03.964Z,100382.53
2022-08-05T09:18:10.103Z,100381.34
2022-08-05T09:21:20.777Z,100372.87
2022-08-05T09:24:24.177Z,100373.97
2022-08-05T09:28:04.420Z,100373.41
2022-08-05T09:31:22.060Z,100369.53
2022-08-05T09:34:46.481Z,100362.78
2022-08-05T09:38:17.389Z,100358.38
2022-08-05T09:41:16.049Z,100360.00
2022-08-05T09:44:36.588Z,100351.28
2022-08-05T09:47:55.457Z,100350.50
2022-08-05T09:50:59.844Z,100342.91
2022-08-05T09:54:06.796Z,100338.47
2022-08-05T09:57:20.640Z,100342.34
2022-08-05T10:00:26.426Z,100334.63
2022-08-05T10:03:56.882Z,100331.16
2022-08-05T10:06:59.341Z,100328.22
2022-08-05T10:10:15.573Z,100327.03
2022-08-05T10:13:43.969Z,100322.28
2022-08-05T10:16:53.209Z,100316.81
2022-08-05T10:20:03.718Z,100310.00
2022-08-05T10:23:34.321Z,100318.91
2022-08-05T10:26:37.257Z,100307.78
2022-08-05T10:30:06.719Z,100309.72
2022-08-05T10:33:17.550Z,100306.50
2022-08-05T10:36:23.648Z,100298.50
2022-08-05T10:40:03.137Z,100296.38
2022-08-05T10:43:02.544Z,100296.81
2022-08-05T10:46:09.513Z,100292.56
2022-08-05T10:49:16.849Z,100288.63
2022-08-05T10:52:37.880Z,100291.66
2022-08-05T10:56:21.215Z,100288.63
2022-08-05T11:00:03.257Z,100287.19
2022-08-05T11:03:23.497Z,100281.44
2022-08-05T11:06:31.180Z,100278.31
2022-08-05T11:09:46.355Z,100276.56
2022-08-05T11:12:54.467Z,100271.44
2022-08-05T11:16:22.005Z,100270.66
2022-08-05T11:20:16.840Z,100268.84
2022-08-05T11:22:54.833Z,100269.00
2022-08-05T11:26:11.199Z,100271.84
2022-08-05T11:29:34.813Z,100263.69
2022-08-05T11:32:39.294Z,100257.47
2022-08-05T11:36:07.415Z,100264.00
2022-08-05T11:39:13.609Z,100254.28
2022-08-05T11:42:18.396Z,100259.12
2022-08-05T11:46:14.507Z,100259.91
2022-08-05T11:48:43.283Z,100254.69
2022-08-05T11:51:49.474Z,100258.47
2022-08-05T11:54:54.944Z,100258.19
2022-08-05T11:58:09.532Z,100257.75
2022-08-05T12:01:19.150Z,100263.59
2022-08-05T12:04:22.698Z,100259.81
2022-08-05T12:08:09.491Z,100260.09
2022-08-05T12:11:00.304Z,100257.47
2022-08-05T12:14:08.520Z,100254.56
2022-08-05T12:18:02.775Z,100249.44
2022-08-05T12:20:38.533Z,100242.12
2022-08-05T12:23:57.424Z,100245.25
2022-08-05T12:27:09.963Z,100243.75
2022-08-05T12:30:23.820Z,100236.16
2022-08-05T12:33:37.167Z,100232.09
2022-08-05T12:36:41.822Z,100232.97
2022-08-05T12:39:44.861Z,100236.59
2022-08-05T12:42:53.534Z,100232.28
2022-08-05T12:45:56.642Z,100227.16
2022-08-05T12:49:13.238Z,100224.66
2022-08-05T12:52:25.579Z,100229.66
2022-08-05T12:55:32.756Z,100226.56
2022-08-05T12:58:38.786Z,100215.38
2022-08-05T13:02:07.615Z,100212.09
2022-08-05T13:05:12.481Z,100213.59
2022-08-05T13:08:19.903Z,100200.22
2022-08-05T13:12:01.255Z,100208.28
2022-08-05T13:14:59.181Z,100208.44
2022-08-05T13:18:07.907Z,100188.63
2022-08-05T13:21:10.239Z,100194.66
2022-08-05T13:24:14.979Z,100183.47
2022-08-05T13:27:42.964Z,100180.78
2022-08-05T13:30:45.099Z,100178.81
2022-08-05T13:34:22.074Z,100185.56
2022-08-05T13:37:13.015Z,100174.94
2022-08-05T13:40:36.959Z,100165.03
2022-08-05T13:43:44.651Z,100168.50
2022-08-05T13:47:02.588Z,100165.47
2022-08-05T13:50:14.819Z,100159.06
2022-08-05T13:53:19.106Z,100153.16
2022-08-05T13:56:21.283Z,100148.75
2022-08-05T13:59:24.777Z,100145.87
2022-08-05T14:02:31.268Z,100144.31
2022-08-05T14:06:24.820Z,100143.19
2022-08-05T14:08:55.776Z,100139.81
2022-08-05T14:12:17.113Z,100128.09
2022-08-05T14:16:08.273Z,100136.00
2022-08-05T14:18:42.358Z,100130.19
2022-08-05T14:22:08.472Z,100119.06
2022-08-05T14:25:21.438Z,100124.25
2022-08-05T14:28:26.163Z,100125.37
2022-08-05T14:32:02.333Z,100122.50
2022-08-05T14:34:52.566Z,100115.81
